createdAt,value
2023-02-11T00:01:00.810Z,14.80
2023-02-11T00:03:27.431Z,14.76
2023-02-11T00:06:01.169Z,14.83
2023-02-11T00:08:28.121Z,14.83
2023-02-11T00:10:56.135Z,14.78
2023-02-11T00:13:23.107Z,14.76
2023-02-11T00:15:49.979Z,14.81
2023-02-11T00:18:16.705Z,14.75
2023-02-11T00:20:43.626Z,14.83
2023-02-11T00:23:10.243Z,14.74
2023-02-11T00:25:41.571Z,14.78
2023-02-11T00:28:08.962Z,14.72
2023-02-11T00:30:35.754Z,14.71
2023-02-11T00:33:02.413Z,14.76
2023-02-11T00:35:29.623Z,14.70
2023-02-11T00:37:56.470Z,14.83
2023-02-11T00:40:23.320Z,14.76
2023-02-11T00:42:49.870Z,14.73
2023-02-11T00:45:16.437Z,14.71
2023-02-11T00:47:43.061Z,14.71
2023-02-11T00:50:09.667Z,14.73
2023-02-11T00:52:36.279Z,14.73
2023-02-11T00:55:02.828Z,14.77
2023-02-11T00:57:29.460Z,14.72
2023-02-11T00:59:56.121Z,14.75
2023-02-11T01:02:22.695Z,14.75
2023-02-11T01:04:49.265Z,14.62
2023-02-11T01:07:16.046Z,14.65
2023-02-11T01:09:42.747Z,14.63
2023-02-11T01:12:09.314Z,14.61
2023-02-11T01:14:35.884Z,14.60
2023-02-11T01:17:04.289Z,14.66
2023-02-11T01:19:30.892Z,14.66
2023-02-11T01:21:57.476Z,14.74
2023-02-11T01:24:24.104Z,14.69
2023-02-11T01:26:50.688Z,14.74
2023-02-11T01:29:17.255Z,14.69
2023-02-11T01:31:43.821Z,14.70
2023-02-11T01:34:10.403Z,14.65
2023-02-11T01:36:37.035Z,14.63
2023-02-11T01:39:03.702Z,14.70
2023-02-11T01:41:30.407Z,14.64
2023-02-11T01:43:56.987Z,14.59
2023-02-11T01:46:25.074Z,14.62
2023-02-11T01:49:03.473Z,14.73
2023-02-11T01:51:44.417Z,14.62
2023-02-11T01:54:32.917Z,14.60
2023-02-11T01:57:18.671Z,14.58
2023-02-11T02:00:21.588Z,14.66
2023-02-11T02:02:55.069Z,14.61
2023-02-11T02:05:27.526Z,14.55
2023-02-11T02:07:59.899Z,14.59
2023-02-11T02:10:27.803Z,14.56
2023-02-11T02:12:54.514Z,14.60
2023-02-11T02:15:27.492Z,14.62
2023-02-11T02:18:06.794Z,14.63
2023-02-11T02:21:11.653Z,14.61
2023-02-11T02:24:02.967Z,14.63
2023-02-11T02:27:06.192Z,14.60
2023-02-11T02:29:56.757Z,14.60
2023-02-11T02:33:05.813Z,14.62
2023-02-11T02:35:55.926Z,14.58
2023-02-11T02:38:27.869Z,14.56
2023-02-11T02:41:02.552Z,14.58
2023-02-11T02:43:29.772Z,14.65
2023-02-11T02:45:56.756Z,14.57
2023-02-11T02:48:25.499Z,14.60
2023-02-11T02:50:58.586Z,14.69
2023-02-11T02:54:04.263Z,14.63
2023-02-11T02:56:46.369Z,14.67
2023-02-11T02:59:24.889Z,14.68
2023-02-11T03:02:46.174Z,14.63
2023-02-11T03:05:22.080Z,14.59
2023-02-11T03:07:57.296Z,14.69
2023-02-11T03:10:26.660Z,14.72
2023-02-11T03:12:54.500Z,14.71
2023-02-11T03:15:23.421Z,14.69
2023-02-11T03:17:52.040Z,14.73
2023-02-11T03:20:20.361Z,14.70
2023-02-11T03:22:51.050Z,14.72
2023-02-11T03:25:17.746Z,14.74
2023-02-11T03:27:54.006Z,14.70
2023-02-11T03:30:30.570Z,14.72
2023-02-11T03:33:01.397Z,14.68
2023-02-11T03:35:37.069Z,14.74
2023-02-11T03:38:16.263Z,14.70
2023-02-11T03:40:45.540Z,14.75
2023-02-11T03:43:21.179Z,14.72
2023-02-11T03:45:48.800Z,14.71
2023-02-11T03:48:20.425Z,14.68
2023-02-11T03:50:48.820Z,14.71
2023-02-11T03:53:16.128Z,14.63
2023-02-11T03:55:43.548Z,14.75
2023-02-11T03:58:10.295Z,14.68
2023-02-11T04:00:39.814Z,14.71
2023-02-11T04:03:07.506Z,14.68
2023-02-11T04:05:34.118Z,14.63
2023-02-11T04:08:00.770Z,14.70
2023-02-11T04:10:27.330Z,14.63
2023-02-11T04:12:53.915Z,14.65
2023-02-11T04:15:20.495Z,14.69
2023-02-11T04:17:47.054Z,14.69
2023-02-11T04:20:13.683Z,14.75
2023-02-11T04:22:40.287Z,14.66
2023-02-11T04:25:07.466Z,14.68
2023-02-11T04:27:34.030Z,14.74
2023-02-11T04:30:00.650Z,14.68
2023-02-11T04:32:27.213Z,14.72
2023-02-11T04:34:54.914Z,14.72
2023-02-11T04:37:21.488Z,14.67
2023-02-11T04:39:48.061Z,14.65
2023-02-11T04:42:14.786Z,14.70
2023-02-11T04:44:41.366Z,14.68
2023-02-11T04:47:07.984Z,14.72
2023-02-11T04:49:34.615Z,14.67
2023-02-11T04:52:01.195Z,14.65
2023-02-11T04:54:27.783Z,14.69
2023-02-11T04:56:54.377Z,14.66
2023-02-11T04:59:20.939Z,14.66
2023-02-11T05:01:47.514Z,14.70
2023-02-11T05:04:14.154Z,14.69
2023-02-11T05:06:40.726Z,14.65
2023-02-11T05:09:07.405Z,14.67
2023-02-11T05:11:33.971Z,14.65
2023-02-11T05:14:00.568Z,14.62
2023-02-11T05:16:27.156Z,14.65
2023-02-11T05:18:55.715Z,14.62
2023-02-11T05:21:22.554Z,14.63
2023-02-11T05:23:49.126Z,14.63
2023-02-11T05:26:15.725Z,14.69
2023-02-11T05:28:42.446Z,14.63
2023-02-11T05:31:09.177Z,14.68
2023-02-11T05:33:35.826Z,14.70
2023-02-11T05:36:05.344Z,14.63
2023-02-11T05:38:32.080Z,14.60
2023-02-11T05:40:58.688Z,14.66
2023-02-11T05:43:25.287Z,14.68
2023-02-11T05:45:52.245Z,14.68
2023-02-11T05:48:19.097Z,14.73
2023-02-11T05:50:45.849Z,14.73
2023-02-11T05:53:12.463Z,14.66
2023-02-11T05:55:39.292Z,14.67
2023-02-11T05:58:06.341Z,14.72
2023-02-11T06:00:32.898Z,14.67
2023-02-11T06:02:59.577Z,14.63
2023-02-11T06:05:26.249Z,14.66
2023-02-11T06:07:52.949Z,14.66
2023-02-11T06:10:19.566Z,14.59
2023-02-11T06:12:46.169Z,14.61
2023-02-11T06:15:12.770Z,14.58
2023-02-11T06:17:39.350Z,14.60
2023-02-11T06:20:08.408Z,14.67
2023-02-11T06:22:35.248Z,14.68
2023-02-11T06:25:02.439Z,14.58
2023-02-11T06:27:29.574Z,14.60
2023-02-11T06:29:56.272Z,14.61
2023-02-11T06:32:42.614Z,14.61
2023-02-11T06:35:11.759Z,14.71
2023-02-11T06:37:38.762Z,14.59
2023-02-11T06:40:05.762Z,14.63
2023-02-11T06:42:32.423Z,14.64
2023-02-11T06:44:58.981Z,14.57
2023-02-11T06:47:25.577Z,14.55
2023-02-11T06:49:52.148Z,14.55
2023-02-11T06:52:18.709Z,14.57
2023-02-11T06:54:45.285Z,14.61
2023-02-11T06:57:11.836Z,14.56
2023-02-11T06:59:38.494Z,14.58
2023-02-11T07:02:05.143Z,14.80
2023-02-11T07:04:31.826Z,15.00
2023-02-11T07:06:58.381Z,15.12
2023-02-11T07:09:24.952Z,15.30
2023-02-11T07:11:51.563Z,15.48
2023-02-11T07:14:18.143Z,15.75
2023-02-11T07:16:44.731Z,16.07
2023-02-11T07:19:11.274Z,16.34
2023-02-11T07:21:37.832Z,16.69
2023-02-11T07:24:10.912Z,16.84
2023-02-11T07:26:37.785Z,16.92
2023-02-11T07:29:04.379Z,17.10
2023-02-11T07:31:31.605Z,17.12
2023-02-11T07:34:00.291Z,17.17
2023-02-11T07:36:28.230Z,17.21
2023-02-11T07:38:54.807Z,17.20
2023-02-11T07:41:23.030Z,17.18
2023-02-11T07:43:49.884Z,17.11
2023-02-11T07:46:19.845Z,17.05
2023-02-11T07:48:46.701Z,17.02
2023-02-11T07:51:19.141Z,16.93
2023-02-11T07:53:46.264Z,16.86
2023-02-11T07:56:14.823Z,16.78
2023-02-11T07:58:44.677Z,16.74
2023-02-11T08:01:14.328Z,16.77
2023-02-11T08:03:42.861Z,16.71
2023-02-11T08:06:14.592Z,16.72
2023-02-11T08:08:41.576Z,16.67
2023-02-11T08:11:09.182Z,16.64
2023-02-11T08:13:36.191Z,16.61
2023-02-11T08:16:03.795Z,16.53
2023-02-11T08:18:31.347Z,16.52
2023-02-11T08:21:04.444Z,16.44
2023-02-11T08:23:31.020Z,16.42
2023-02-11T08:26:02.286Z,16.44
2023-02-11T08:28:28.874Z,16.38
2023-02-11T08:30:55.525Z,16.42
2023-02-11T08:33:22.171Z,16.38
2023-02-11T08:35:48.767Z,16.29
2023-02-11T08:38:15.341Z,16.25
2023-02-11T08:40:41.910Z,16.30
2023-02-11T08:43:08.458Z,16.26
2023-02-11T08:45:35.107Z,16.25
2023-02-11T08:48:01.707Z,16.30
2023-02-11T08:50:28.446Z,16.14
2023-02-11T08:52:55.049Z,16.15
2023-02-11T08:55:21.620Z,16.25
2023-02-11T08:57:48.179Z,16.11
2023-02-11T09:00:15.569Z,16.20
2023-02-11T09:02:42.197Z,16.19
2023-02-11T09:05:08.891Z,16.20
2023-02-11T09:07:35.433Z,16.21
2023-02-11T09:10:02.064Z,16.15
2023-02-11T09:12:28.617Z,16.16
2023-02-11T09:14:55.193Z,16.20
2023-02-11T09:17:21.739Z,16.18
2023-02-11T09:19:48.308Z,16.15
2023-02-11T09:22:14.846Z,16.15
2023-02-11T09:24:41.443Z,16.14
2023-02-11T09:27:08.004Z,16.15
2023-02-11T09:29:34.595Z,16.16
2023-02-11T09:32:01.265Z,16.14
2023-02-11T09:34:27.967Z,16.14
2023-02-11T09:36:54.614Z,16.12
2023-02-11T09:39:21.169Z,16.09
2023-02-11T09:42:05.733Z,16.06
2023-02-11T09:44:34.436Z,16.11
2023-02-11T09:47:03.939Z,15.95
2023-02-11T09:49:40.407Z,16.07
2023-02-11T09:52:13.030Z,15.98
2023-02-11T09:54:54.796Z,15.93
2023-02-11T09:57:28.660Z,15.81
2023-02-11T09:59:56.869Z,15.78
2023-02-11T10:02:26.446Z,15.85
2023-02-11T10:05:18.103Z,15.91
2023-02-11T10:07:59.565Z,15.94
2023-02-11T10:10:38.014Z,16.06
2023-02-11T10:13:30.335Z,16.10
2023-02-11T10:16:02.799Z,16.10
2023-02-11T10:18:50.471Z,16.12
2023-02-11T10:21:31.870Z,16.17
2023-02-11T10:24:02.044Z,16.19
2023-02-11T10:26:30.984Z,16.18
2023-02-11T10:29:01.566Z,16.22
2023-02-11T10:31:38.544Z,16.32
2023-02-11T10:34:07.506Z,16.28
2023-02-11T10:36:36.967Z,16.40
2023-02-11T10:39:13.270Z,16.46
2023-02-11T10:41:54.109Z,16.45
2023-02-11T10:44:27.874Z,16.41
2023-02-11T10:46:54.710Z,16.42
2023-02-11T10:49:39.225Z,16.47
2023-02-11T10:52:18.299Z,16.61
2023-02-11T10:55:09.421Z,16.48
2023-02-11T10:57:45.601Z,16.45
2023-02-11T11:00:18.271Z,16.48
2023-02-11T11:02:47.431Z,16.46
2023-02-11T11:05:20.062Z,16.47
2023-02-11T11:07:55.281Z,16.45
2023-02-11T11:10:36.937Z,16.46
2023-02-11T11:13:03.722Z,16.50
2023-02-11T11:15:31.744Z,16.54
2023-02-11T11:18:22.873Z,16.60
2023-02-11T11:21:19.247Z,16.62
2023-02-11T11:23:51.743Z,16.75
2023-02-11T11:26:18.737Z,16.56
2023-02-11T11:29:03.460Z,16.53
2023-02-11T11:31:48.196Z,16.57
2023-02-11T11:34:25.662Z,16.41
2023-02-11T11:36:52.347Z,16.69
2023-02-11T11:39:27.014Z,16.73
2023-02-11T11:42:05.558Z,16.73
2023-02-11T11:44:33.828Z,16.69
2023-02-11T11:47:12.606Z,16.66
2023-02-11T11:49:51.351Z,16.63
2023-02-11T11:52:34.992Z,16.60
2023-02-11T11:55:23.084Z,16.53
2023-02-11T11:57:49.998Z,16.52
2023-02-11T12:00:36.333Z,16.52
2023-02-11T12:03:28.016Z,16.55
2023-02-11T12:06:06.772Z,16.68
2023-02-11T12:08:55.023Z,16.56
2023-02-11T12:11:40.916Z,16.61
2023-02-11T12:14:20.640Z,16.47
2023-02-11T12:17:05.316Z,16.42
2023-02-11T12:19:35.574Z,16.47
2023-02-11T12:22:18.970Z,16.65
2023-02-11T12:25:12.755Z,16.65
2023-02-11T12:27:42.474Z,16.71
2023-02-11T12:30:50.341Z,16.72
2023-02-11T12:33:50.145Z,16.64
2023-02-11T12:36:40.662Z,16.61
2023-02-11T12:39:42.339Z,16.64
2023-02-11T12:42:39.358Z,16.64
2023-02-11T12:45:11.770Z,16.58
2023-02-11T12:47:42.420Z,16.65
2023-02-11T12:50:30.518Z,16.62
2023-02-11T12:53:22.474Z,16.74
2023-02-11T12:55:53.731Z,16.68
2023-02-11T12:58:29.626Z,16.62
2023-02-11T13:01:15.950Z,16.63
2023-02-11T13:03:47.563Z,16.62
2023-02-11T13:06:18.482Z,16.53
2023-02-11T13:08:48.129Z,16.53
2023-02-11T13:11:19.025Z,16.52
2023-02-11T13:13:45.521Z,16.56
2023-02-11T13:16:39.322Z,16.56
2023-02-11T13:19:20.939Z,16.53
2023-02-11T13:22:12.172Z,16.59
2023-02-11T13:24:41.455Z,16.64
2023-02-11T13:27:10.912Z,16.59
2023-02-11T13:30:29.347Z,16.64
2023-02-11T13:32:55.985Z,16.61
2023-02-11T13:35:38.411Z,16.63
2023-02-11T13:38:13.197Z,16.69
2023-02-11T13:40:40.252Z,16.66
2023-02-11T13:43:20.838Z,16.67
2023-02-11T13:45:48.551Z,16.68
2023-02-11T13:48:24.001Z,16.69
2023-02-11T13:50:56.613Z,16.72
2023-02-11T13:53:23.609Z,16.63
2023-02-11T13:55:52.482Z,16.64
2023-02-11T13:58:37.180Z,16.60
2023-02-11T14:01:03.784Z,16.70
2023-02-11T14:03:57.139Z,16.66
2023-02-11T14:06:44.625Z,16.68
2023-02-11T14:09:13.941Z,16.69
2023-02-11T14:11:40.852Z,16.63
2023-02-11T14:14:29.980Z,16.67
2023-02-11T14:17:02.540Z,16.66
2023-02-11T14:19:37.806Z,16.67
2023-02-11T14:22:06.369Z,16.65
2023-02-11T14:24:32.873Z,16.64
2023-02-11T14:27:03.907Z,16.57
2023-02-11T14:30:03.004Z,16.57
2023-02-11T14:32:38.349Z,16.51
2023-02-11T14:35:04.886Z,16.52
2023-02-11T14:38:08.505Z,16.60
2023-02-11T14:41:02.080Z,16.56
2023-02-11T14:43:34.892Z,16.53
2023-02-11T14:46:01.630Z,16.44
2023-02-11T14:48:31.128Z,16.52
2023-02-11T14:51:06.555Z,16.50
2023-02-11T14:53:33.888Z,16.52
2023-02-11T14:56:00.527Z,16.43
2023-02-11T14:58:30.643Z,16.41
2023-02-11T15:01:02.614Z,16.54
2023-02-11T15:03:33.266Z,16.37
2023-02-11T15:06:18.765Z,16.36
2023-02-11T15:08:49.196Z,16.44
2023-02-11T15:11:18.194Z,16.44
2023-02-11T15:13:49.631Z,16.45
2023-02-11T15:16:22.366Z,16.42
2023-02-11T15:18:51.880Z,16.40
2023-02-11T15:21:23.988Z,16.42
2023-02-11T15:24:46.711Z,16.35
2023-02-11T15:27:15.756Z,16.41
2023-02-11T15:29:51.146Z,16.36
2023-02-11T15:32:23.233Z,16.45
2023-02-11T15:34:51.893Z,16.44
2023-02-11T15:37:29.750Z,16.45
2023-02-11T15:40:11.698Z,16.47
2023-02-11T15:42:52.107Z,16.48
2023-02-11T15:45:34.024Z,16.42
2023-02-11T15:48:19.398Z,16.47
2023-02-11T15:51:01.929Z,16.37
2023-02-11T15:53:43.434Z,16.43
2023-02-11T15:56:24.149Z,16.45
2023-02-11T15:58:52.200Z,16.42
2023-02-11T16:01:18.835Z,16.47
2023-02-11T16:03:50.323Z,16.49
2023-02-11T16:06:21.347Z,16.35
2023-02-11T16:09:12.903Z,16.36
2023-02-11T16:11:48.242Z,16.36
2023-02-11T16:14:23.584Z,16.45
2023-02-11T16:16:51.975Z,16.46
2023-02-11T16:19:20.840Z,16.53
2023-02-11T16:21:49.082Z,16.47
2023-02-11T16:24:41.747Z,16.49
2023-02-11T16:27:30.359Z,16.36
2023-02-11T16:29:57.846Z,16.36
2023-02-11T16:32:26.503Z,16.35
2023-02-11T16:34:57.867Z,16.46
2023-02-11T16:37:25.251Z,16.41
2023-02-11T16:39:55.910Z,16.37
2023-02-11T16:42:23.309Z,16.40
2023-02-11T16:44:49.871Z,16.43
2023-02-11T16:47:24.310Z,16.38
2023-02-11T16:49:51.150Z,16.31
2023-02-11T16:52:18.553Z,16.32
2023-02-11T16:54:45.127Z,16.31
2023-02-11T16:57:15.708Z,16.37
2023-02-11T16:59:42.776Z,16.29
2023-02-11T17:02:30.618Z,16.33
2023-02-11T17:05:11.835Z,16.30
2023-02-11T17:07:38.408Z,16.34
2023-02-11T17:10:13.753Z,16.30
2023-02-11T17:12:40.354Z,16.37
2023-02-11T17:15:07.697Z,16.46
2023-02-11T17:17:34.297Z,16.34
2023-02-11T17:20:00.855Z,16.50
2023-02-11T17:22:27.443Z,16.53
2023-02-11T17:24:55.880Z,16.49
2023-02-11T17:27:22.796Z,16.45
2023-02-11T17:29:49.467Z,16.44
2023-02-11T17:32:16.090Z,16.48
2023-02-11T17:34:42.719Z,16.49
2023-02-11T17:37:10.354Z,16.46
2023-02-11T17:39:38.335Z,16.39
2023-02-11T17:42:06.081Z,16.44
2023-02-11T17:44:33.346Z,16.50
2023-02-11T17:46:59.906Z,16.48
2023-02-11T17:49:27.523Z,16.53
2023-02-11T17:51:54.132Z,16.41
2023-02-11T17:54:20.814Z,16.50
2023-02-11T17:56:50.521Z,16.41
2023-02-11T17:59:17.396Z,16.39
2023-02-11T18:01:44.190Z,16.36
2023-02-11T18:04:14.673Z,16.35
2023-02-11T18:06:41.347Z,16.46
2023-02-11T18:09:07.907Z,16.36
2023-02-11T18:11:37.280Z,16.47
2023-02-11T18:14:04.765Z,16.35
2023-02-11T18:16:31.431Z,16.33
2023-02-11T18:18:58.644Z,16.34
2023-02-11T18:21:25.703Z,16.20
2023-02-11T18:23:52.328Z,16.19
2023-02-11T18:26:20.180Z,16.21
2023-02-11T18:28:47.230Z,16.34
2023-02-11T18:31:14.631Z,16.37
2023-02-11T18:33:42.000Z,16.30
2023-02-11T18:36:13.138Z,16.30
2023-02-11T18:38:40.748Z,16.15
2023-02-11T18:41:07.840Z,16.11
2023-02-11T18:43:35.236Z,16.12
2023-02-11T18:46:03.024Z,16.05
2023-02-11T18:48:29.708Z,16.09
2023-02-11T18:50:56.584Z,16.11
2023-02-11T18:53:25.010Z,16.08
2023-02-11T18:55:54.019Z,16.08
2023-02-11T18:58:21.361Z,15.97
2023-02-11T19:00:48.659Z,16.02
2023-02-11T19:03:15.381Z,16.08
2023-02-11T19:05:43.513Z,16.04
2023-02-11T19:08:10.798Z,16.03
2023-02-11T19:10:45.510Z,16.11
2023-02-11T19:13:12.354Z,16.11
2023-02-11T19:15:45.735Z,16.11
2023-02-11T19:18:13.874Z,16.16
2023-02-11T19:20:41.846Z,16.13
2023-02-11T19:23:08.871Z,16.09
2023-02-11T19:25:35.695Z,16.10
2023-02-11T19:28:03.268Z,15.95
2023-02-11T19:30:29.918Z,15.96
2023-02-11T19:32:57.680Z,16.01
2023-02-11T19:35:25.101Z,16.05
2023-02-11T19:37:51.990Z,16.08
2023-02-11T19:40:21.164Z,16.13
2023-02-11T19:42:47.735Z,16.03
2023-02-11T19:45:14.313Z,16.07
2023-02-11T19:47:40.931Z,16.07
2023-02-11T19:50:08.601Z,16.10
2023-02-11T19:52:40.298Z,16.09
2023-02-11T19:55:07.662Z,16.09
2023-02-11T19:57:34.267Z,16.08
2023-02-11T20:00:01.457Z,16.06
2023-02-11T20:02:29.232Z,15.99
2023-02-11T20:04:55.838Z,16.07
2023-02-11T20:07:22.475Z,16.10
2023-02-11T20:09:49.069Z,16.08
2023-02-11T20:12:15.695Z,16.06
2023-02-11T20:14:42.299Z,16.06
2023-02-11T20:17:08.913Z,16.12
2023-02-11T20:19:35.485Z,16.05
2023-02-11T20:22:02.046Z,16.01
2023-02-11T20:24:28.624Z,15.96
2023-02-11T20:26:58.179Z,15.96
2023-02-11T20:29:25.619Z,16.02
2023-02-11T20:31:52.380Z,16.00
2023-02-11T20:34:19.148Z,16.12
2023-02-11T20:36:51.690Z,15.97
2023-02-11T20:39:21.706Z,16.04
2023-02-11T20:41:48.499Z,15.97
2023-02-11T20:44:15.094Z,16.03
2023-02-11T20:46:45.943Z,15.93
2023-02-11T20:49:14.850Z,15.90
2023-02-11T20:51:41.590Z,16.02
2023-02-11T20:54:12.497Z,15.90
2023-02-11T20:56:39.271Z,15.90
2023-02-11T20:59:06.106Z,15.89
2023-02-11T21:01:40.626Z,15.87
2023-02-11T21:04:11.055Z,15.90
2023-02-11T21:06:40.350Z,15.96
2023-02-11T21:09:08.406Z,15.84
2023-02-11T21:11:35.134Z,15.90
2023-02-11T21:14:02.611Z,15.88
2023-02-11T21:16:29.474Z,15.83
2023-02-11T21:18:56.935Z,15.88
2023-02-11T21:21:24.147Z,15.84
2023-02-11T21:23:50.760Z,15.81
2023-02-11T21:26:17.883Z,15.76
2023-02-11T21:28:44.560Z,15.75
2023-02-11T21:31:21.542Z,15.84
2023-02-11T21:33:49.352Z,15.77
2023-02-11T21:36:16.111Z,15.77
2023-02-11T21:38:42.696Z,15.73
2023-02-11T21:41:09.470Z,15.77
2023-02-11T21:43:36.098Z,15.78
2023-02-11T21:46:07.236Z,15.76
2023-02-11T21:48:33.786Z,15.74
2023-02-11T21:51:05.523Z,15.74
2023-02-11T21:53:32.119Z,15.75
2023-02-11T21:56:13.718Z,15.82
2023-02-11T21:58:40.406Z,15.72
2023-02-11T22:01:30.536Z,15.74
2023-02-11T22:03:58.013Z,15.75
2023-02-11T22:06:27.121Z,15.75
2023-02-11T22:08:54.446Z,15.62
2023-02-11T22:11:21.297Z,15.71
2023-02-11T22:13:48.235Z,15.66
2023-02-11T22:16:16.854Z,15.62
2023-02-11T22:18:46.681Z,15.64
2023-02-11T22:21:18.430Z,15.62
2023-02-11T22:23:45.382Z,15.56
2023-02-11T22:26:14.957Z,15.65
2023-02-11T22:28:41.667Z,15.57
2023-02-11T22:31:13.449Z,15.59
2023-02-11T22:33:40.417Z,15.65
2023-02-11T22:36:10.408Z,15.64
2023-02-11T22:38:36.967Z,15.61
2023-02-11T22:41:08.171Z,15.62
2023-02-11T22:43:34.788Z,15.61
2023-02-11T22:46:05.900Z,15.59
2023-02-11T22:48:34.227Z,15.55
2023-02-11T22:51:08.234Z,15.59
2023-02-11T22:53:35.193Z,15.61
2023-02-11T22:56:07.165Z,15.59
2023-02-11T22:58:34.912Z,15.58
2023-02-11T23:01:01.709Z,15.56
2023-02-11T23:03:28.675Z,15.55
2023-02-11T23:05:57.998Z,15.57
2023-02-11T23:08:25.192Z,15.52
2023-02-11T23:10:51.751Z,15.55
2023-02-11T23:13:18.387Z,15.55
2023-02-11T23:15:45.930Z,15.57
2023-02-11T23:18:13.446Z,15.53
2023-02-11T23:20:42.344Z,15.52
2023-02-11T23:23:09.012Z,15.47
2023-02-11T23:25:35.615Z,15.55
2023-02-11T23:28:02.290Z,15.56
2023-02-11T23:30:29.126Z,15.57
2023-02-11T23:32:55.690Z,15.54
2023-02-11T23:35:23.173Z,15.57
2023-02-11T23:37:50.774Z,15.58
2023-02-11T23:40:18.386Z,15.59
2023-02-11T23:42:45.736Z,15.58
2023-02-11T23:45:12.301Z,15.55
2023-02-11T23:47:39.740Z,15.53
2023-02-11T23:50:07.816Z,15.47
2023-02-11T23:52:34.453Z,15.56
2023-02-11T23:55:01.005Z,15.55
2023-02-11T23:57:27.567Z,15.52
2023-02-11T23:59:54.114Z,15.52
